Date,TemperatureHighF,TemperatureAvgF,TemperatureLowF,DewpointHighF,DewpointAvgF,DewpointLowF,HumidityHigh,HumidityAvg,HumidityLow,PressureMaxIn,PressureMinIn,WindSpeedMaxMPH,WindSpeedAvgMPH,GustSpeedMaxMPH,PrecipitationSumIn
2013-2-1,30,26,22,17,12,7,75,55,41,30.20,29.73,10,3,26,0.00
2013-2-2,28,22,17,20,12,7,92,67,42,30.27,30.05,8,1,15,0.00
2013-2-3,30,24,20,21,19,17,94,80,63,30.04,29.78,7,0,7,0.04
2013-2-4,29,25,21,21,13,8,88,59,45,29.95,29.78,10,2,16,0.00
2013-2-5,28,26,24,26,23,15,93,85,64,29.97,29.89,4,0,7,0.00
2013-2-6,37,30,25,28,21,3,100,73,35,30.33,29.90,9,2,16,0.02
2013-2-7,30,26,20,21,11,5,74,56,40,30.50,30.32,9,1,9,0.00
2013-2-8,32,30,26,30,28,21,97,91,74,30.33,29.64,12,5,20,0.00
2013-2-9,30,26,19,26,18,7,96,76,47,30.32,29.74,19,5,20,0.01
2013-2-10,36,25,13,22,12,6,77,61,40,30.46,30.32,4,0,8,0.08
2013-2-11,42,36,28,41,33,22,98,92,72,30.31,29.66,3,0,7,0.34
2013-2-12,43,39,35,38,29,25,95,68,55,29.94,29.70,9,2,20,0.00
2013-2-13,43,35,28,32,26,23,95,71,52,29.93,29.68,5,0,7,0.00
2013-2-14,45,36,28,32,29,26,96,78,51,29.98,29.70,3,0,8,0.07
2013-2-15,53,42,31,35,30,26,92,67,42,29.99,29.89,9,1,13,0.00
2013-2-16,37,33,29,34,26,15,94,77,57,29.95,29.73,8,3,12,0.06
2013-2-17,29,24,16,15,8,1,58,50,36,29.95,29.64,17,6,28,0.00
2013-2-18,34,24,15,14,8,3,63,51,36,30.22,29.96,13,4,23,0.00
2013-2-19,44,35,25,40,28,14,96,75,52,30.19,29.67,9,1,22,0.29
2013-2-20,36,29,24,24,16,11,69,58,47,29.95,29.68,11,4,21,0.00
2013-2-21,31,26,23,16,14,12,72,61,52,30.29,29.95,21,5,24,0.00
2013-2-22,37,31,23,30,23,16,84,73,59,30.39,30.26,8,2,12,0.00
2013-2-23,39,36,32,38,34,29,97,96,84,30.27,29.80,8,2,9,0.10
2013-2-24,43,37,32,38,32,24,97,84,64,29.94,29.73,14,2,22,0.00
2013-2-25,43,37,30,30,28,24,85,69,57,30.22,29.95,7,1,11,0.00
2013-2-26,41,37,32,33,31,27,94,79,67,30.28,29.91,11,3,16,0.15
2013-2-27,45,40,34,43,38,33,97,95,88,29.91,29.49,16,4,23,0.88
2013-2-28,48,41,37,39,35,31,95,79,58,29.61,29.53,4,0,12,0.00